createdAt,value
2024-02-12T00:01:42.790Z,98420.69
2024-02-12T00:04:09.307Z,98424.59
2024-02-12T00:06:38.636Z,98422.13
2024-02-12T00:09:05.169Z,98427.34
2024-02-12T00:11:31.998Z,98418.59
2024-02-12T00:13:58.603Z,98426.59
2024-02-12T00:16:27.282Z,98426.88
2024-02-12T00:18:53.762Z,98424.59
2024-02-12T00:21:20.196Z,98427.44
2024-02-12T00:23:47.725Z,98420.31
2024-02-12T00:26:15.513Z,98430.00
2024-02-12T00:28:42.892Z,98436.06
2024-02-12T00:31:13.460Z,98429.16
2024-02-12T00:33:41.204Z,98431.22
2024-02-12T00:36:07.801Z,98433.38
2024-02-12T00:38:34.247Z,98441.88
2024-02-12T00:41:01.134Z,98442.50
2024-02-12T00:43:28.147Z,98449.25
2024-02-12T00:45:55.520Z,98440.50
2024-02-12T00:48:22.094Z,98439.94
2024-02-12T00:50:49.389Z,98439.84
2024-02-12T00:53:16.466Z,98442.69
2024-02-12T00:55:43.282Z,98443.53
2024-02-12T00:58:10.813Z,98444.72
2024-02-12T01:00:37.367Z,98453.47
2024-02-12T01:03:06.910Z,98454.81
2024-02-12T01:05:33.405Z,98459.28
2024-02-12T01:08:00.179Z,98459.19
2024-02-12T01:10:27.631Z,98460.91
2024-02-12T01:12:54.658Z,98460.03
2024-02-12T01:15:21.187Z,98461.75
2024-02-12T01:17:51.234Z,98466.78
2024-02-12T01:20:23.751Z,98473.16
2024-02-12T01:22:50.931Z,98465.09
2024-02-12T01:25:20.901Z,98478.41
2024-02-12T01:27:47.886Z,98467.78
2024-02-12T01:30:14.850Z,98482.63
2024-02-12T01:32:41.840Z,98485.56
2024-02-12T01:35:08.790Z,98493.13
2024-02-12T01:37:35.326Z,98487.81
2024-02-12T01:40:01.984Z,98490.47
2024-02-12T01:42:28.422Z,98497.84
2024-02-12T01:45:12.833Z,98499.53
2024-02-12T01:47:47.759Z,98497.25
2024-02-12T01:50:14.891Z,98502.19
2024-02-12T01:52:50.064Z,98503.66
2024-02-12T01:55:18.920Z,98503.91
2024-02-12T01:57:51.226Z,98499.91
2024-02-12T02:00:19.174Z,98505.78
2024-02-12T02:02:47.773Z,98504.78
2024-02-12T02:05:14.887Z,98513.31
2024-02-12T02:07:43.194Z,98517.44
2024-02-12T02:10:15.863Z,98520.19
2024-02-12T02:12:48.012Z,98517.75
2024-02-12T02:15:15.169Z,98519.47
2024-02-12T02:17:42.617Z,98522.22
2024-02-12T02:20:11.898Z,98518.53
2024-02-12T02:22:39.059Z,98521.88
2024-02-12T02:25:06.926Z,98519.84
2024-02-12T02:27:35.769Z,98529.13
2024-02-12T02:30:09.466Z,98526.97
2024-02-12T02:32:37.155Z,98521.72
2024-02-12T02:35:05.987Z,98522.13
2024-02-12T02:37:33.340Z,98529.56
2024-02-12T02:39:59.798Z,98533.34
2024-02-12T02:42:26.745Z,98537.81
2024-02-12T02:44:55.746Z,98524.53
2024-02-12T02:47:22.713Z,98533.84
2024-02-12T02:49:49.249Z,98535.88
2024-02-12T02:52:15.704Z,98542.03
2024-02-12T02:54:44.586Z,98536.97
2024-02-12T02:57:12.768Z,98543.31
2024-02-12T02:59:39.853Z,98546.19
2024-02-12T03:02:09.932Z,98545.34
2024-02-12T03:04:36.981Z,98542.59
2024-02-12T03:07:03.625Z,98546.94
2024-02-12T03:09:30.085Z,98550.81
2024-02-12T03:11:57.242Z,98560.41
2024-02-12T03:14:23.776Z,98568.09
2024-02-12T03:16:56.068Z,98569.13
2024-02-12T03:19:22.741Z,98577.50
2024-02-12T03:21:52.281Z,98567.16
2024-02-12T03:24:20.984Z,98575.44
2024-02-12T03:26:49.143Z,98584.78
2024-02-12T03:29:15.778Z,98587.97
2024-02-12T03:31:42.212Z,98585.41
2024-02-12T03:34:10.300Z,98584.88
2024-02-12T03:36:44.073Z,98593.56
2024-02-12T03:39:15.310Z,98594.84
2024-02-12T03:41:41.838Z,98598.97
2024-02-12T03:44:10.724Z,98606.75
2024-02-12T03:46:40.393Z,98602.25
2024-02-12T03:49:25.823Z,98617.28
2024-02-12T03:52:10.542Z,98617.94
2024-02-12T03:54:57.687Z,98620.28
2024-02-12T03:57:43.878Z,98626.50
2024-02-12T04:00:12.334Z,98624.41
2024-02-12T04:02:38.934Z,98627.59
2024-02-12T04:05:06.885Z,98633.63
2024-02-12T04:07:33.351Z,98639.25
2024-02-12T04:10:00.524Z,98634.47
2024-02-12T04:12:29.629Z,98646.91
2024-02-12T04:14:56.718Z,98648.72
2024-02-12T04:17:23.173Z,98641.50
2024-02-12T04:19:49.597Z,98649.88
2024-02-12T04:22:18.959Z,98647.16
2024-02-12T04:24:45.881Z,98655.88
2024-02-12T04:27:12.944Z,98667.06
2024-02-12T04:29:41.222Z,98664.72
2024-02-12T04:32:14.286Z,98664.78
2024-02-12T04:34:44.018Z,98669.28
2024-02-12T04:37:11.377Z,98669.88
2024-02-12T04:39:38.215Z,98680.97
2024-02-12T04:42:05.824Z,98696.09
2024-02-12T04:44:32.597Z,98691.59
2024-02-12T04:47:02.905Z,98693.44
2024-02-12T04:49:29.715Z,98694.94
2024-02-12T04:51:56.714Z,98700.09
2024-02-12T04:54:24.323Z,98702.91
2024-02-12T04:56:51.045Z,98700.09
2024-02-12T04:59:19.492Z,98708.69
2024-02-12T05:01:46.509Z,98706.78
2024-02-12T05:04:13.178Z,98711.16
2024-02-12T05:06:39.661Z,98716.94
2024-02-12T05:09:06.812Z,98719.13
2024-02-12T05:11:33.548Z,98709.94
2024-02-12T05:14:00.141Z,98725.00
2024-02-12T05:16:33.616Z,98717.28
2024-02-12T05:19:22.141Z,98726.81
2024-02-12T05:22:07.872Z,98720.25
2024-02-12T05:24:34.845Z,98721.56
2024-02-12T05:27:02.712Z,98724.22
2024-02-12T05:29:29.324Z,98714.16
2024-02-12T05:31:55.913Z,98729.06
2024-02-12T05:34:24.428Z,98722.59
2024-02-12T05:36:53.090Z,98732.75
2024-02-12T05:39:22.711Z,98735.25
2024-02-12T05:41:49.835Z,98733.91
2024-02-12T05:44:19.534Z,98739.69
2024-02-12T05:46:46.082Z,98740.28
2024-02-12T05:49:15.477Z,98747.09
2024-02-12T05:51:45.642Z,98754.13
2024-02-12T05:54:12.813Z,98750.19
2024-02-12T05:56:41.507Z,98757.00
2024-02-12T05:59:09.747Z,98748.69
2024-02-12T06:01:36.276Z,98752.03
2024-02-12T06:04:02.663Z,98759.13
2024-02-12T06:06:29.318Z,98761.03
2024-02-12T06:08:55.960Z,98761.91
2024-02-12T06:11:22.528Z,98765.84
2024-02-12T06:13:48.960Z,98772.31
2024-02-12T06:16:15.413Z,98779.50
2024-02-12T06:18:41.917Z,98779.28
2024-02-12T06:21:08.380Z,98782.00
2024-02-12T06:23:34.903Z,98788.41
2024-02-12T06:26:01.537Z,98791.97
2024-02-12T06:28:27.995Z,98798.13
2024-02-12T06:30:54.418Z,98795.53
2024-02-12T06:33:21.387Z,98790.06
2024-02-12T06:35:48.006Z,98800.84
2024-02-12T06:38:15.745Z,98800.03
2024-02-12T06:40:42.366Z,98804.06
2024-02-12T06:43:08.820Z,98812.16
2024-02-12T06:45:35.651Z,98806.28
2024-02-12T06:48:02.217Z,98813.38
2024-02-12T06:50:28.890Z,98816.78
2024-02-12T06:52:55.300Z,98820.91
2024-02-12T06:55:22.699Z,98841.97
2024-02-12T06:57:49.241Z,98833.56
2024-02-12T07:00:21.020Z,98837.44
2024-02-12T07:02:48.066Z,98841.66
2024-02-12T07:05:18.847Z,98851.97
2024-02-12T07:07:47.033Z,98852.75
2024-02-12T07:10:13.705Z,98858.84
2024-02-12T07:12:40.295Z,98862.00
2024-02-12T07:15:08.492Z,98857.06
2024-02-12T07:17:35.727Z,98860.66
2024-02-12T07:20:06.180Z,98858.75
2024-02-12T07:22:32.724Z,98864.25
2024-02-12T07:24:59.195Z,98866.69
2024-02-12T07:27:25.855Z,98869.94
2024-02-12T07:29:52.532Z,98874.53
2024-02-12T07:32:20.725Z,98873.97
2024-02-12T07:34:47.598Z,98879.56
2024-02-12T07:37:14.418Z,98882.41
2024-02-12T07:39:41.770Z,98896.81
2024-02-12T07:42:09.336Z,98892.22
2024-02-12T07:44:36.002Z,98896.09
2024-02-12T07:47:04.809Z,98898.66
2024-02-12T07:49:32.320Z,98901.28
2024-02-12T07:52:02.293Z,98899.47
2024-02-12T07:54:30.131Z,98910.66
2024-02-12T07:56:57.036Z,98905.91
2024-02-12T07:59:25.256Z,98902.53
2024-02-12T08:01:52.996Z,98914.59
2024-02-12T08:04:20.584Z,98918.09
2024-02-12T08:06:47.593Z,98915.81
2024-02-12T08:09:16.001Z,98924.69
2024-02-12T08:11:43.086Z,98924.16
2024-02-12T08:14:12.443Z,98932.13
2024-02-12T08:16:39.271Z,98934.03
2024-02-12T08:19:05.772Z,98935.91
2024-02-12T08:21:32.390Z,98952.63
2024-02-12T08:23:58.798Z,98945.75
2024-02-12T08:26:26.694Z,98951.16
2024-02-12T08:28:53.116Z,98947.47
2024-02-12T08:31:19.581Z,98952.47
2024-02-12T08:33:46.081Z,98965.56
2024-02-12T08:36:12.505Z,98959.25
2024-02-12T08:38:39.373Z,98964.88
2024-02-12T08:41:05.861Z,98975.34
2024-02-12T08:43:32.268Z,98976.44
2024-02-12T08:45:58.981Z,98984.63
2024-02-12T08:48:26.984Z,98978.31
2024-02-12T08:50:54.531Z,98986.03
2024-02-12T08:53:20.948Z,98996.66
2024-02-12T08:55:47.487Z,98999.03
2024-02-12T08:58:14.438Z,98995.53
2024-02-12T09:00:45.960Z,99006.50
2024-02-12T09:03:15.074Z,99003.84
2024-02-12T09:05:42.131Z,99001.34
2024-02-12T09:08:09.489Z,98999.66
2024-02-12T09:10:36.042Z,99012.34
2024-02-12T09:13:05.908Z,99012.50
2024-02-12T09:15:32.305Z,99016.47
2024-02-12T09:17:58.910Z,99017.31
2024-02-12T09:20:26.427Z,99023.16
2024-02-12T09:22:54.676Z,99029.38
2024-02-12T09:25:23.938Z,99038.25
2024-02-12T09:27:50.981Z,99031.91
2024-02-12T09:30:18.813Z,99040.88
2024-02-12T09:32:48.181Z,99034.38
2024-02-12T09:35:18.930Z,99040.47
2024-02-12T09:37:47.180Z,99043.53
2024-02-12T09:40:16.336Z,99043.59
2024-02-12T09:42:43.394Z,99040.88
2024-02-12T09:45:12.484Z,99051.94
2024-02-12T09:47:44.677Z,99051.91
2024-02-12T09:50:14.128Z,99048.38
2024-02-12T09:52:42.575Z,99063.75
2024-02-12T09:55:10.432Z,99053.69
2024-02-12T09:57:37.037Z,99060.97
2024-02-12T10:00:08.177Z,99062.13
2024-02-12T10:02:37.897Z,99062.50
2024-02-12T10:05:07.722Z,99067.09
2024-02-12T10:07:40.889Z,99063.38
2024-02-12T10:10:09.030Z,99064.72
2024-02-12T10:12:38.935Z,99067.34
2024-02-12T10:15:06.727Z,99073.63
2024-02-12T10:17:33.380Z,99075.81
2024-02-12T10:20:00.698Z,99078.41
2024-02-12T10:22:27.208Z,99075.19
2024-02-12T10:24:53.675Z,99077.53
2024-02-12T10:27:21.913Z,99084.25
2024-02-12T10:30:06.154Z,99084.81
2024-02-12T10:32:35.974Z,99088.81
2024-02-12T10:35:08.197Z,99084.38
2024-02-12T10:37:36.285Z,99078.00
2024-02-12T10:40:13.231Z,99081.78
2024-02-12T10:42:53.714Z,99085.81
2024-02-12T10:45:20.316Z,99088.69
2024-02-12T10:47:49.157Z,99085.47
2024-02-12T10:50:18.751Z,99079.41
2024-02-12T10:52:47.580Z,99089.75
2024-02-12T10:55:14.210Z,99084.41
2024-02-12T10:57:43.772Z,99093.13
2024-02-12T11:00:20.822Z,99094.28
2024-02-12T11:02:51.546Z,99092.94
2024-02-12T11:05:19.104Z,99096.19
2024-02-12T11:07:46.323Z,99098.66
2024-02-12T11:10:25.123Z,99102.59
2024-02-12T11:12:51.533Z,99092.66
2024-02-12T11:15:36.406Z,99091.31
2024-02-12T11:18:13.969Z,99100.84
2024-02-12T11:20:50.586Z,99097.06
2024-02-12T11:23:24.282Z,99104.34
2024-02-12T11:25:55.541Z,99104.22
2024-02-12T11:28:24.856Z,99097.53
2024-02-12T11:30:54.237Z,99106.63
2024-02-12T11:33:20.995Z,99113.59
2024-02-12T11:35:47.526Z,99113.16
2024-02-12T11:38:14.739Z,99113.22
2024-02-12T11:40:41.790Z,99113.16
2024-02-12T11:43:08.304Z,99109.34
2024-02-12T11:45:37.972Z,99116.56
2024-02-12T11:48:12.088Z,99112.94
2024-02-12T11:50:39.314Z,99117.28
2024-02-12T11:53:06.729Z,99119.75
2024-02-12T11:55:34.350Z,99126.53
2024-02-12T11:58:01.118Z,99125.09
2024-02-12T12:00:29.799Z,99129.38
2024-02-12T12:02:56.632Z,99139.31
2024-02-12T12:05:27.738Z,99126.53
2024-02-12T12:07:57.053Z,99133.69
2024-02-12T12:10:24.683Z,99126.13
2024-02-12T12:12:59.347Z,99131.81
2024-02-12T12:15:29.395Z,99124.59
2024-02-12T12:17:59.155Z,99130.44
2024-02-12T12:20:31.567Z,99130.28
2024-02-12T12:23:01.750Z,99131.59
2024-02-12T12:25:28.340Z,99124.78
2024-02-12T12:27:55.813Z,99131.41
2024-02-12T12:30:23.507Z,99127.78
2024-02-12T12:32:51.361Z,99127.03
2024-02-12T12:35:18.883Z,99132.88
2024-02-12T12:37:46.542Z,99127.88
2024-02-12T12:40:19.924Z,99136.25
2024-02-12T12:42:50.629Z,99135.63
2024-02-12T12:45:18.665Z,99140.34
2024-02-12T12:47:46.155Z,99137.09
2024-02-12T12:50:15.619Z,99134.50
2024-02-12T12:52:43.133Z,99142.34
2024-02-12T12:55:14.632Z,99143.69
2024-02-12T12:57:43.660Z,99146.28
2024-02-12T13:00:20.462Z,99135.88
2024-02-12T13:02:47.654Z,99149.13
2024-02-12T13:05:14.616Z,99153.69
2024-02-12T13:07:42.671Z,99139.50
2024-02-12T13:12:59.494Z,99148.09
2024-02-12T13:15:27.107Z,99152.84
2024-02-12T13:17:53.834Z,99153.09
2024-02-12T13:20:23.257Z,99158.25
2024-02-12T13:22:57.559Z,99153.28
2024-02-12T13:25:32.880Z,99155.22
2024-02-12T13:28:03.391Z,99161.00
2024-02-12T13:30:34.432Z,99159.28
2024-02-12T13:33:06.179Z,99165.41
2024-02-12T13:35:33.588Z,99161.88
2024-02-12T13:38:00.303Z,99165.97
2024-02-12T13:40:30.940Z,99172.44
2024-02-12T13:42:58.264Z,99178.28
2024-02-12T13:45:25.216Z,99179.94
2024-02-12T13:47:53.780Z,99180.53
2024-02-12T13:50:20.423Z,99177.69
2024-02-12T13:52:49.523Z,99178.81
2024-02-12T13:55:16.772Z,99186.91
2024-02-12T13:57:49.465Z,99199.38
2024-02-12T14:00:37.630Z,99212.84
2024-02-12T14:03:06.512Z,99228.28
2024-02-12T14:05:33.495Z,99231.41
2024-02-12T14:08:00.201Z,99230.53
2024-02-12T14:10:27.787Z,99231.63
2024-02-12T14:12:55.006Z,99226.03
2024-02-12T14:16:01.714Z,99230.75
2024-02-12T14:18:10.479Z,99236.34
2024-02-12T14:20:37.359Z,99241.00
2024-02-12T14:23:04.969Z,99240.06
2024-02-12T14:25:32.241Z,99246.25
2024-02-12T14:27:59.008Z,99247.25
2024-02-12T14:30:27.782Z,99247.28
2024-02-12T14:32:55.711Z,99247.63
2024-02-12T14:35:26.465Z,99255.19
2024-02-12T14:37:57.634Z,99246.00
2024-02-12T14:40:24.829Z,99256.13
2024-02-12T14:42:51.400Z,99269.88
2024-02-12T14:45:22.668Z,99260.94
2024-02-12T14:47:50.092Z,99270.47
2024-02-12T14:50:19.742Z,99273.56
2024-02-12T14:52:46.396Z,99277.19
2024-02-12T14:55:12.906Z,99281.03
2024-02-12T14:57:42.643Z,99274.09
2024-02-12T15:00:14.672Z,99287.47
2024-02-12T15:02:42.773Z,99296.06
2024-02-12T15:05:16.629Z,99289.31
2024-02-12T15:07:51.051Z,99288.00
2024-02-12T15:10:22.268Z,99293.00
2024-02-12T15:12:49.530Z,99295.38
2024-02-12T15:15:20.405Z,99300.06
2024-02-12T15:17:55.067Z,99306.34
2024-02-12T15:20:23.144Z,99299.22
2024-02-12T15:22:51.494Z,99306.41
2024-02-12T15:25:20.546Z,99314.38
2024-02-12T15:27:48.242Z,99306.63
2024-02-12T15:30:20.066Z,99314.91
2024-02-12T15:32:49.304Z,99326.41
2024-02-12T15:35:17.355Z,99328.72
2024-02-12T15:37:44.869Z,99330.06
2024-02-12T15:40:12.835Z,99333.50
2024-02-12T15:42:42.744Z,99335.38
2024-02-12T15:45:09.931Z,99349.50
2024-02-12T15:47:38.573Z,99349.34
2024-02-12T15:50:05.491Z,99356.13
2024-02-12T15:52:31.973Z,99368.22
2024-02-12T15:54:58.442Z,99357.56
2024-02-12T15:57:27.389Z,99375.25
2024-02-12T15:59:54.286Z,99375.59
2024-02-12T16:02:20.940Z,99377.47
2024-02-12T16:04:48.921Z,99381.72
2024-02-12T16:07:15.543Z,99386.09
2024-02-12T16:09:42.560Z,99392.78
2024-02-12T16:12:11.193Z,99397.06
2024-02-12T16:14:38.274Z,99405.50
2024-02-12T16:17:05.782Z,99409.72
2024-02-12T16:19:32.356Z,99427.03
2024-02-12T16:21:59.467Z,99430.16
2024-02-12T16:24:26.471Z,99425.56
2024-02-12T16:26:52.928Z,99429.19
2024-02-12T16:29:21.045Z,99434.81
2024-02-12T16:31:47.758Z,99437.16
2024-02-12T16:34:15.568Z,99445.63
2024-02-12T16:36:42.767Z,99445.59
2024-02-12T16:39:13.973Z,99451.19
2024-02-12T16:41:47.202Z,99456.56
2024-02-12T16:44:14.219Z,99454.59
2024-02-12T16:46:44.897Z,99470.69
2024-02-12T16:49:12.463Z,99487.59
2024-02-12T16:51:39.059Z,99487.66
2024-02-12T16:54:07.828Z,99486.13
2024-02-12T16:56:35.906Z,99486.47
2024-02-12T16:59:06.512Z,99493.75
2024-02-12T17:01:33.462Z,99494.34
2024-02-12T17:03:59.993Z,99508.44
2024-02-12T17:06:26.512Z,99510.03
2024-02-12T17:08:54.944Z,99515.28
2024-02-12T17:11:21.689Z,99525.91
2024-02-12T17:13:48.904Z,99531.13
2024-02-12T17:16:29.712Z,99530.94
2024-02-12T17:19:02.112Z,99541.03
2024-02-12T17:21:28.906Z,99544.69
2024-02-12T17:23:55.567Z,99550.44
2024-02-12T17:26:23.187Z,99557.75
2024-02-12T17:28:49.662Z,99562.63
2024-02-12T17:31:16.341Z,99560.03
2024-02-12T17:33:43.578Z,99567.16
2024-02-12T17:36:12.193Z,99568.19
2024-02-12T17:38:41.040Z,99576.03
2024-02-12T17:41:11.567Z,99585.34
2024-02-12T17:43:38.432Z,99583.63
2024-02-12T17:46:05.220Z,99595.09
2024-02-12T17:48:32.243Z,99593.72
2024-02-12T17:50:58.901Z,99585.41
2024-02-12T17:53:25.372Z,99596.25
2024-02-12T17:55:51.837Z,99602.09
2024-02-12T17:58:18.482Z,99604.00
2024-02-12T18:00:46.253Z,99608.66
2024-02-12T18:03:13.742Z,99611.59
2024-02-12T18:05:40.430Z,99626.59
2024-02-12T18:08:11.297Z,99631.50
2024-02-12T18:10:39.684Z,99636.16
2024-02-12T18:13:06.879Z,99641.34
2024-02-12T18:15:34.392Z,99649.66
2024-02-12T18:18:02.097Z,99647.16
2024-02-12T18:20:28.726Z,99651.66
2024-02-12T18:22:55.507Z,99654.97
2024-02-12T18:25:22.044Z,99656.56
2024-02-12T18:27:49.657Z,99669.72
2024-02-12T18:30:16.314Z,99667.81
2024-02-12T18:32:44.117Z,99665.88
2024-02-12T18:35:14.115Z,99675.59
2024-02-12T18:37:41.459Z,99685.53
2024-02-12T18:40:17.311Z,99684.69
2024-02-12T18:42:45.148Z,99688.66
2024-02-12T18:45:18.480Z,99697.75
2024-02-12T18:47:47.438Z,99698.91
2024-02-12T18:50:14.707Z,99697.94
2024-02-12T18:52:41.176Z,99702.22
2024-02-12T18:55:12.119Z,99713.75
2024-02-12T18:57:41.531Z,99706.94
2024-02-12T19:00:08.909Z,99706.41
2024-02-12T19:02:36.782Z,99703.41
2024-02-12T19:05:03.796Z,99707.13
2024-02-12T19:07:30.658Z,99711.31
2024-02-12T19:09:57.112Z,99709.19
2024-02-12T19:12:24.403Z,99716.41
2024-02-12T19:14:51.485Z,99713.00
2024-02-12T19:17:18.167Z,99718.53
2024-02-12T19:19:44.738Z,99724.13
2024-02-12T19:22:11.328Z,99723.66
2024-02-12T19:24:40.904Z,99728.66
2024-02-12T19:27:07.486Z,99730.47
2024-02-12T19:29:33.977Z,99725.16
2024-02-12T19:32:01.905Z,99731.00
2024-02-12T19:34:28.369Z,99733.22
2024-02-12T19:36:57.651Z,99742.75
2024-02-12T19:39:24.064Z,99754.63
2024-02-12T19:41:50.462Z,99753.59
2024-02-12T19:44:17.504Z,99761.78
2024-02-12T19:46:44.125Z,99764.00
2024-02-12T19:49:10.679Z,99772.97
2024-02-12T19:51:37.871Z,99773.16
2024-02-12T19:54:05.077Z,99773.53
2024-02-12T19:56:37.376Z,99782.63
2024-02-12T19:59:07.245Z,99790.47
2024-02-12T20:01:36.345Z,99785.97
2024-02-12T20:04:05.385Z,99784.41
2024-02-12T20:06:34.807Z,99799.88
2024-02-12T20:09:01.793Z,99800.00
2024-02-12T20:11:28.275Z,99804.59
2024-02-12T20:13:54.859Z,99809.50
2024-02-12T20:16:21.762Z,99806.28
2024-02-12T20:18:48.411Z,99817.03
2024-02-12T20:21:16.726Z,99813.56
2024-02-12T20:23:43.245Z,99817.25
2024-02-12T20:26:09.809Z,99819.53
2024-02-12T20:28:36.518Z,99840.22
2024-02-12T20:31:03.307Z,99844.78
2024-02-12T20:33:32.358Z,99845.25
2024-02-12T20:36:00.834Z,99863.63
2024-02-12T20:38:27.319Z,99868.66
2024-02-12T20:40:53.758Z,99864.13
2024-02-12T20:43:20.276Z,99874.63
2024-02-12T20:45:47.235Z,99874.75
2024-02-12T20:48:13.953Z,99873.44
2024-02-12T20:50:41.729Z,99874.75
2024-02-12T20:53:09.319Z,99883.75
2024-02-12T20:55:36.866Z,99883.38
2024-02-12T20:58:03.386Z,99887.31
2024-02-12T21:00:29.787Z,99892.59
2024-02-12T21:02:56.844Z,99907.25
2024-02-12T21:05:23.807Z,99901.41
2024-02-12T21:07:50.233Z,99905.56
2024-02-12T21:10:17.017Z,99908.34
2024-02-12T21:12:45.308Z,99919.94
2024-02-12T21:15:12.701Z,99917.00
2024-02-12T21:17:39.307Z,99925.47
2024-02-12T21:20:07.803Z,99925.94
2024-02-12T21:22:34.636Z,99931.50
2024-02-12T21:25:02.261Z,99932.06
2024-02-12T21:27:28.703Z,99934.28
2024-02-12T21:29:55.181Z,99947.66
2024-02-12T21:32:22.938Z,99948.72
2024-02-12T21:34:49.604Z,99950.66
2024-02-12T21:37:18.574Z,99948.09
2024-02-12T21:39:49.262Z,99948.38
2024-02-12T21:42:25.539Z,99956.66
2024-02-12T21:44:54.628Z,99957.69
2024-02-12T21:47:23.322Z,99952.44
2024-02-12T21:49:52.415Z,99956.16
2024-02-12T21:52:18.958Z,99960.72
2024-02-12T21:54:49.261Z,99967.88
2024-02-12T21:57:16.636Z,99974.03
2024-02-12T21:59:43.208Z,99979.31
2024-02-12T22:02:11.044Z,99991.50
2024-02-12T22:04:37.698Z,99994.28
2024-02-12T22:07:04.241Z,99989.66
2024-02-12T22:09:30.709Z,99994.09
2024-02-12T22:11:57.661Z,99996.56
2024-02-12T22:14:24.129Z,99989.06
2024-02-12T22:16:50.578Z,99993.19
2024-02-12T22:19:16.997Z,99993.38
2024-02-12T22:21:43.985Z,100001.22
2024-02-12T22:24:10.701Z,100002.25
2024-02-12T22:26:37.658Z,100006.53
2024-02-12T22:29:04.206Z,100018.34
2024-02-12T22:31:31.477Z,100023.78
2024-02-12T22:33:58.056Z,100030.09
2024-02-12T22:36:24.513Z,100038.19
2024-02-12T22:38:51.045Z,100048.03
2024-02-12T22:41:17.938Z,100046.22
2024-02-12T22:43:44.389Z,100043.00
2024-02-12T22:46:11.121Z,100050.94
2024-02-12T22:48:40.430Z,100063.56
2024-02-12T22:51:06.982Z,100062.66
2024-02-12T22:53:34.882Z,100070.63
2024-02-12T22:56:01.640Z,100070.84
2024-02-12T22:58:28.021Z,100077.06
2024-02-12T23:00:56.705Z,100071.78
2024-02-12T23:03:24.691Z,100081.53
2024-02-12T23:05:51.338Z,100069.31
2024-02-12T23:08:17.964Z,100080.72
2024-02-12T23:10:44.481Z,100090.44
2024-02-12T23:13:11.127Z,100093.00
2024-02-12T23:15:38.574Z,100095.75
2024-02-12T23:18:05.585Z,100096.72
2024-02-12T23:20:32.265Z,100104.59
2024-02-12T23:22:58.784Z,100111.63
2024-02-12T23:25:25.680Z,100116.00
2024-02-12T23:27:52.584Z,100115.94
2024-02-12T23:30:19.124Z,100120.44
2024-02-12T23:32:45.871Z,100127.50
2024-02-12T23:35:13.115Z,100127.50
2024-02-12T23:37:39.563Z,100135.41
2024-02-12T23:40:10.529Z,100142.41
2024-02-12T23:42:40.239Z,100151.19
2024-02-12T23:45:11.834Z,100154.72
2024-02-12T23:47:38.901Z,100157.34
2024-02-12T23:50:12.777Z,100159.09
2024-02-12T23:52:40.634Z,100162.50
2024-02-12T23:55:07.637Z,100158.22
2024-02-12T23:57:37.825Z,100164.38
